sensor_id;sensor_type;location;lat;lon;timestamp;P1;durP1;ratioP1;P2;durP2;ratioP2
21488;SDS011;10906;45.194;5.684;2022-09-28T05:01:23;9.30;;;2.97;;
21488;SDS011;10906;45.194;5.684;2022-09-28T05:04:08;10.05;;;3.20;;
21488;SDS011;10906;45.194;5.684;2022-09-28T05:06:52;9.10;;;3.35;;
21488;SDS011;10906;45.194;5.684;2022-09-28T05:09:36;5.72;;;2.70;;
21488;SDS011;10906;45.194;5.684;2022-09-28T05:12:20;10.43;;;2.70;;
21488;SDS011;10906;45.194;5.684;2022-09-28T05:15:04;5.85;;;3.15;;
21488;SDS011;10906;45.194;5.684;2022-09-28T05:17:51;7.43;;;3.28;;
21488;SDS011;10906;45.194;5.684;2022-09-28T05:20:38;10.15;;;3.65;;
21488;SDS011;10906;45.194;5.684;2022-09-28T05:23:23;10.05;;;3.20;;
21488;SDS011;10906;45.194;5.684;2022-09-28T05:26:07;15.23;;;3.45;;
21488;SDS011;10906;45.194;5.684;2022-09-28T05:28:52;12.25;;;3.75;;
21488;SDS011;10906;45.194;5.684;2022-09-28T05:31:36;5.65;;;2.90;;
21488;SDS011;10906;45.194;5.684;2022-09-28T05:34:20;6.70;;;3.00;;
21488;SDS011;10906;45.194;5.684;2022-09-28T05:37:05;8.30;;;3.40;;
21488;SDS011;10906;45.194;5.684;2022-09-28T05:39:49;9.68;;;3.83;;
21488;SDS011;10906;45.194;5.684;2022-09-28T05:42:33;9.95;;;3.22;;
21488;SDS011;10906;45.194;5.684;2022-09-28T05:45:18;8.32;;;3.13;;
21488;SDS011;10906;45.194;5.684;2022-09-28T05:48:02;6.70;;;3.25;;
21488;SDS011;10906;45.194;5.684;2022-09-28T05:50:50;7.57;;;3.40;;
21488;SDS011;10906;45.194;5.684;2022-09-28T05:53:35;11.75;;;3.38;;
21488;SDS011;10906;45.194;5.684;2022-09-28T05:56:19;6.88;;;3.35;;
21488;SDS011;10906;45.194;5.684;2022-09-28T05:59:03;13.15;;;3.83;;
21488;SDS011;10906;45.194;5.684;2022-09-28T06:01:48;7.60;;;3.42;;
21488;SDS011;10906;45.194;5.684;2022-09-28T06:07:17;7.00;;;3.90;;
21488;SDS011;10906;45.194;5.684;2022-09-28T06:10:01;7.13;;;3.72;;
21488;SDS011;10906;45.194;5.684;2022-09-28T06:12:46;21.75;;;4.40;;
21488;SDS011;10906;45.194;5.684;2022-09-28T06:15:35;10.85;;;3.88;;
21488;SDS011;10906;45.194;5.684;2022-09-28T06:18:19;6.35;;;3.42;;
21488;SDS011;10906;45.194;5.684;2022-09-28T06:21:04;13.07;;;6.72;;
21488;SDS011;10906;45.194;5.684;2022-09-28T06:23:49;22.05;;;19.55;;
21488;SDS011;10906;45.194;5.684;2022-09-28T06:26:33;20.42;;;17.90;;
21488;SDS011;10906;45.194;5.684;2022-09-28T06:29:17;22.35;;;17.23;;
21488;SDS011;10906;45.194;5.684;2022-09-28T06:32:02;11.52;;;7.47;;
21488;SDS011;10906;45.194;5.684;2022-09-28T06:34:46;8.35;;;4.10;;
21488;SDS011;10906;45.194;5.684;2022-09-28T06:40:16;12.80;;;3.90;;
21488;SDS011;10906;45.194;5.684;2022-09-28T06:43:11;8.45;;;4.70;;
21488;SDS011;10906;45.194;5.684;2022-09-28T06:47:03;9.13;;;4.00;;
21488;SDS011;10906;45.194;5.684;2022-09-28T06:49:48;5.25;;;3.83;;
21488;SDS011;10906;45.194;5.684;2022-09-28T06:52:38;13.32;;;4.97;;
21488;SDS011;10906;45.194;5.684;2022-09-28T06:56:06;7.00;;;5.15;;
21488;SDS011;10906;45.194;5.684;2022-09-28T06:59:09;6.53;;;4.65;;
21488;SDS011;10906;45.194;5.684;2022-09-28T07:05:00;13.15;;;4.65;;
21488;SDS011;10906;45.194;5.684;2022-09-28T07:07:45;18.98;;;5.07;;
21488;SDS011;10906;45.194;5.684;2022-09-28T07:10:30;11.50;;;4.45;;
21488;SDS011;10906;45.194;5.684;2022-09-28T07:13:15;16.95;;;5.38;;
21488;SDS011;10906;45.194;5.684;2022-09-28T07:16:01;9.82;;;4.15;;
21488;SDS011;10906;45.194;5.684;2022-09-28T07:18:46;8.57;;;4.28;;
21488;SDS011;10906;45.194;5.684;2022-09-28T07:21:31;8.70;;;4.80;;
21488;SDS011;10906;45.194;5.684;2022-09-28T07:24:15;8.10;;;4.53;;
21488;SDS011;10906;45.194;5.684;2022-09-28T07:27:00;7.45;;;4.80;;
21488;SDS011;10906;45.194;5.684;2022-09-28T07:29:46;9.68;;;4.63;;
21488;SDS011;10906;45.194;5.684;2022-09-28T07:32:31;7.55;;;4.20;;
21488;SDS011;10906;45.194;5.684;2022-09-28T07:35:17;7.70;;;4.20;;
21488;SDS011;10906;45.194;5.684;2022-09-28T07:38:03;9.90;;;5.05;;
21488;SDS011;10906;45.194;5.684;2022-09-28T07:40:49;10.45;;;4.85;;
21488;SDS011;10906;45.194;5.684;2022-09-28T07:43:54;8.30;;;4.50;;
21488;SDS011;10906;45.194;5.684;2022-09-28T07:46:48;11.52;;;4.68;;
21488;SDS011;10906;45.194;5.684;2022-09-28T07:49:33;10.00;;;5.60;;
21488;SDS011;10906;45.194;5.684;2022-09-28T07:52:21;8.05;;;4.72;;
21488;SDS011;10906;45.194;5.684;2022-09-28T07:55:11;8.15;;;5.00;;
21488;SDS011;10906;45.194;5.684;2022-09-28T07:57:56;8.35;;;4.53;;
21488;SDS011;10906;45.194;5.684;2022-09-28T08:00:45;12.05;;;4.55;;
21488;SDS011;10906;45.194;5.684;2022-09-28T08:03:30;7.85;;;4.82;;
21488;SDS011;10906;45.194;5.684;2022-09-28T08:06:15;14.07;;;5.05;;
21488;SDS011;10906;45.194;5.684;2022-09-28T08:09:00;10.57;;;4.38;;
21488;SDS011;10906;45.194;5.684;2022-09-28T08:11:45;8.02;;;4.28;;
21488;SDS011;10906;45.194;5.684;2022-09-28T08:14:29;13.90;;;5.30;;
21488;SDS011;10906;45.194;5.684;2022-09-28T08:17:17;10.43;;;5.75;;
21488;SDS011;10906;45.194;5.684;2022-09-28T08:20:02;14.15;;;6.00;;
21488;SDS011;10906;45.194;5.684;2022-09-28T08:23:06;8.20;;;5.38;;
21488;SDS011;10906;45.194;5.684;2022-09-28T08:25:52;8.73;;;4.68;;
21488;SDS011;10906;45.194;5.684;2022-09-28T08:28:36;7.18;;;4.35;;
21488;SDS011;10906;45.194;5.684;2022-09-28T08:31:22;4.88;;;3.58;;
21488;SDS011;10906;45.194;5.684;2022-09-28T08:34:06;5.22;;;2.72;;
21488;SDS011;10906;45.194;5.684;2022-09-28T08:36:51;5.10;;;3.00;;
21488;SDS011;10906;45.194;5.684;2022-09-28T08:39:39;8.40;;;2.92;;
21488;SDS011;10906;45.194;5.684;2022-09-28T08:42:31;5.63;;;3.38;;
21488;SDS011;10906;45.194;5.684;2022-09-28T08:45:20;8.52;;;3.38;;
21488;SDS011;10906;45.194;5.684;2022-09-28T08:48:11;6.28;;;3.20;;
21488;SDS011;10906;45.194;5.684;2022-09-28T08:57:40;7.15;;;3.40;;
21488;SDS011;10906;45.194;5.684;2022-09-28T09:03:42;8.93;;;3.92;;
21488;SDS011;10906;45.194;5.684;2022-09-28T09:06:32;8.02;;;3.85;;
21488;SDS011;10906;45.194;5.684;2022-09-28T09:19:52;4.10;;;3.00;;
21488;SDS011;10906;45.194;5.684;2022-09-28T09:22:38;6.32;;;3.17;;
21488;SDS011;10906;45.194;5.684;2022-09-28T09:32:21;5.05;;;3.13;;
21488;SDS011;10906;45.194;5.684;2022-09-28T09:42:31;4.25;;;2.22;;
21488;SDS011;10906;45.194;5.684;2022-09-28T09:48:24;6.63;;;2.45;;
21488;SDS011;10906;45.194;5.684;2022-09-28T09:51:26;8.13;;;2.97;;
21488;SDS011;10906;45.194;5.684;2022-09-28T09:57:45;4.05;;;2.22;;
21488;SDS011;10906;45.194;5.684;2022-09-28T11:44:09;7.45;;;3.03;;
21488;SDS011;10906;45.194;5.684;2022-09-28T11:56:57;7.93;;;3.72;;
21488;SDS011;10906;45.194;5.684;2022-09-28T12:00:14;6.95;;;3.03;;
21488;SDS011;10906;45.194;5.684;2022-09-28T12:03:04;6.95;;;3.90;;
21488;SDS011;10906;45.194;5.684;2022-09-28T12:05:55;7.15;;;2.83;;
21488;SDS011;10906;45.194;5.684;2022-09-28T12:08:46;5.63;;;3.75;;
21488;SDS011;10906;45.194;5.684;2022-09-28T12:11:37;4.60;;;3.42;;
21488;SDS011;10906;45.194;5.684;2022-09-28T12:14:31;5.75;;;3.28;;
21488;SDS011;10906;45.194;5.684;2022-09-28T12:20:51;5.28;;;2.60;;
21488;SDS011;10906;45.194;5.684;2022-09-28T12:33:03;8.60;;;3.17;;
21488;SDS011;10906;45.194;5.684;2022-09-28T12:42:10;8.45;;;4.57;;
21488;SDS011;10906;45.194;5.684;2022-09-28T12:49:10;6.07;;;4.03;;
21488;SDS011;10906;45.194;5.684;2022-09-28T12:55:31;4.90;;;2.97;;
21488;SDS011;10906;45.194;5.684;2022-09-28T13:01:47;2.65;;;1.40;;
21488;SDS011;10906;45.194;5.684;2022-09-28T13:04:37;2.10;;;1.00;;
21488;SDS011;10906;45.194;5.684;2022-09-28T13:11:13;2.70;;;1.30;;
21488;SDS011;10906;45.194;5.684;2022-09-28T13:17:47;2.92;;;1.63;;
21488;SDS011;10906;45.194;5.684;2022-09-28T13:24:02;4.47;;;2.17;;
21488;SDS011;10906;45.194;5.684;2022-09-28T13:26:52;2.65;;;1.67;;
21488;SDS011;10906;45.194;5.684;2022-09-28T13:29:41;2.97;;;2.00;;
21488;SDS011;10906;45.194;5.684;2022-09-28T13:32:26;2.97;;;2.10;;
21488;SDS011;10906;45.194;5.684;2022-09-28T13:35:17;2.63;;;1.90;;
21488;SDS011;10906;45.194;5.684;2022-09-28T13:59:32;2.78;;;1.48;;
21488;SDS011;10906;45.194;5.684;2022-09-28T14:02:41;3.80;;;1.50;;
21488;SDS011;10906;45.194;5.684;2022-09-28T14:05:46;3.17;;;1.65;;
21488;SDS011;10906;45.194;5.684;2022-09-28T14:11:23;4.88;;;1.40;;
21488;SDS011;10906;45.194;5.684;2022-09-28T14:20:23;1.75;;;1.42;;
21488;SDS011;10906;45.194;5.684;2022-09-28T14:23:16;2.15;;;1.50;;
21488;SDS011;10906;45.194;5.684;2022-09-28T14:29:24;2.97;;;1.33;;
21488;SDS011;10906;45.194;5.684;2022-09-28T14:34:57;2.28;;;1.45;;
21488;SDS011;10906;45.194;5.684;2022-09-28T14:37:47;1.90;;;1.70;;
21488;SDS011;10906;45.194;5.684;2022-09-28T14:46:42;1.27;;;1.17;;
21488;SDS011;10906;45.194;5.684;2022-09-28T14:52:16;4.35;;;1.20;;
21488;SDS011;10906;45.194;5.684;2022-09-28T14:55:25;3.85;;;1.70;;
21488;SDS011;10906;45.194;5.684;2022-09-28T14:58:20;6.27;;;1.47;;
21488;SDS011;10906;45.194;5.684;2022-09-28T15:04:03;2.33;;;1.42;;
21488;SDS011;10906;45.194;5.684;2022-09-28T15:06:54;2.55;;;1.35;;
21488;SDS011;10906;45.194;5.684;2022-09-28T15:09:40;4.18;;;1.95;;
21488;SDS011;10906;45.194;5.684;2022-09-28T15:12:28;7.55;;;2.78;;
21488;SDS011;10906;45.194;5.684;2022-09-28T15:15:25;11.18;;;2.55;;
21488;SDS011;10906;45.194;5.684;2022-09-28T15:18:24;3.97;;;2.38;;
21488;SDS011;10906;45.194;5.684;2022-09-28T15:21:32;5.30;;;1.48;;
21488;SDS011;10906;45.194;5.684;2022-09-28T15:24:32;8.05;;;1.88;;
21488;SDS011;10906;45.194;5.684;2022-09-28T15:27:17;9.13;;;1.13;;
21488;SDS011;10906;45.194;5.684;2022-09-28T15:30:22;2.85;;;0.95;;
21488;SDS011;10906;45.194;5.684;2022-09-28T15:33:26;6.15;;;1.00;;
21488;SDS011;10906;45.194;5.684;2022-09-28T15:36:33;1.65;;;0.80;;
21488;SDS011;10906;45.194;5.684;2022-09-28T15:39:32;4.90;;;0.90;;
21488;SDS011;10906;45.194;5.684;2022-09-28T15:42:17;0.80;;;0.77;;
21488;SDS011;10906;45.194;5.684;2022-09-28T15:45:04;7.53;;;0.93;;
21488;SDS011;10906;45.194;5.684;2022-09-28T15:48:25;2.85;;;0.95;;
21488;SDS011;10906;45.194;5.684;2022-09-28T15:51:13;1.38;;;0.70;;
21488;SDS011;10906;45.194;5.684;2022-09-28T15:57:01;4.82;;;1.25;;
21488;SDS011;10906;45.194;5.684;2022-09-28T15:59:48;5.25;;;1.08;;
21488;SDS011;10906;45.194;5.684;2022-09-28T16:02:55;2.40;;;0.80;;
21488;SDS011;10906;45.194;5.684;2022-09-28T16:06:08;1.70;;;0.90;;
21488;SDS011;10906;45.194;5.684;2022-09-28T16:08:53;7.93;;;0.90;;
21488;SDS011;10906;45.194;5.684;2022-09-28T16:11:38;3.05;;;0.88;;
21488;SDS011;10906;45.194;5.684;2022-09-28T16:14:27;3.67;;;1.15;;
21488;SDS011;10906;45.194;5.684;2022-09-28T16:17:16;4.50;;;1.48;;
21488;SDS011;10906;45.194;5.684;2022-09-28T16:26:04;4.75;;;1.38;;
21488;SDS011;10906;45.194;5.684;2022-09-28T16:28:52;2.47;;;1.25;;
21488;SDS011;10906;45.194;5.684;2022-09-28T16:31:37;4.05;;;1.15;;
21488;SDS011;10906;45.194;5.684;2022-09-28T16:34:24;3.58;;;1.95;;
21488;SDS011;10906;45.194;5.684;2022-09-28T16:37:24;3.72;;;1.25;;
21488;SDS011;10906;45.194;5.684;2022-09-28T16:40:16;5.78;;;1.77;;
21488;SDS011;10906;45.194;5.684;2022-09-28T16:43:01;2.92;;;1.10;;
21488;SDS011;10906;45.194;5.684;2022-09-28T16:45:48;2.58;;;1.20;;
21488;SDS011;10906;45.194;5.684;2022-09-28T16:48:34;2.20;;;1.27;;
21488;SDS011;10906;45.194;5.684;2022-09-28T16:51:31;4.25;;;1.10;;
21488;SDS011;10906;45.194;5.684;2022-09-28T16:54:21;2.75;;;0.95;;
21488;SDS011;10906;45.194;5.684;2022-09-28T16:57:28;5.00;;;1.33;;
21488;SDS011;10906;45.194;5.684;2022-09-28T17:00:14;4.32;;;0.90;;
21488;SDS011;10906;45.194;5.684;2022-09-28T17:03:09;3.83;;;1.00;;
21488;SDS011;10906;45.194;5.684;2022-09-28T17:06:01;4.80;;;1.50;;
21488;SDS011;10906;45.194;5.684;2022-09-28T17:08:48;4.50;;;2.25;;
21488;SDS011;10906;45.194;5.684;2022-09-28T17:11:36;3.75;;;1.30;;
21488;SDS011;10906;45.194;5.684;2022-09-28T17:14:22;4.05;;;1.10;;
21488;SDS011;10906;45.194;5.684;2022-09-28T17:17:12;4.88;;;1.38;;
21488;SDS011;10906;45.194;5.684;2022-09-28T17:19:58;2.33;;;0.80;;
21488;SDS011;10906;45.194;5.684;2022-09-28T17:22:43;3.97;;;0.88;;
21488;SDS011;10906;45.194;5.684;2022-09-28T17:25:27;1.67;;;1.13;;
21488;SDS011;10906;45.194;5.684;2022-09-28T17:28:18;2.88;;;1.13;;
21488;SDS011;10906;45.194;5.684;2022-09-28T17:31:26;1.80;;;1.20;;
21488;SDS011;10906;45.194;5.684;2022-09-28T17:34:14;2.13;;;1.20;;
21488;SDS011;10906;45.194;5.684;2022-09-28T17:36:59;5.63;;;1.48;;
21488;SDS011;10906;45.194;5.684;2022-09-28T17:39:43;2.70;;;1.40;;
21488;SDS011;10906;45.194;5.684;2022-09-28T17:42:28;3.80;;;1.30;;
21488;SDS011;10906;45.194;5.684;2022-09-28T17:45:13;4.22;;;2.30;;
21488;SDS011;10906;45.194;5.684;2022-09-28T17:47:59;5.22;;;2.30;;
21488;SDS011;10906;45.194;5.684;2022-09-28T17:50:44;3.03;;;2.47;;
21488;SDS011;10906;45.194;5.684;2022-09-28T17:53:30;1.25;;;1.02;;
21488;SDS011;10906;45.194;5.684;2022-09-28T17:56:14;2.42;;;1.13;;
21488;SDS011;10906;45.194;5.684;2022-09-28T17:58:59;2.72;;;1.40;;
21488;SDS011;10906;45.194;5.684;2022-09-28T18:01:55;3.08;;;1.75;;
21488;SDS011;10906;45.194;5.684;2022-09-28T18:04:40;4.72;;;2.17;;
21488;SDS011;10906;45.194;5.684;2022-09-28T18:07:24;4.43;;;2.08;;
21488;SDS011;10906;45.194;5.684;2022-09-28T18:10:14;2.90;;;1.90;;
21488;SDS011;10906;45.194;5.684;2022-09-28T18:13:00;5.75;;;1.75;;
21488;SDS011;10906;45.194;5.684;2022-09-28T18:15:45;5.22;;;1.33;;
21488;SDS011;10906;45.194;5.684;2022-09-28T18:18:34;4.50;;;2.20;;
21488;SDS011;10906;45.194;5.684;2022-09-28T18:21:22;5.05;;;3.50;;
21488;SDS011;10906;45.194;5.684;2022-09-28T18:24:07;5.03;;;1.52;;
21488;SDS011;10906;45.194;5.684;2022-09-28T18:26:51;2.55;;;1.83;;
21488;SDS011;10906;45.194;5.684;2022-09-28T18:29:36;5.70;;;2.17;;
21488;SDS011;10906;45.194;5.684;2022-09-28T18:32:23;5.00;;;2.47;;
21488;SDS011;10906;45.194;5.684;2022-09-28T18:37:53;6.15;;;2.60;;
21488;SDS011;10906;45.194;5.684;2022-09-28T18:40:38;3.83;;;2.13;;
21488;SDS011;10906;45.194;5.684;2022-09-28T18:43:31;2.25;;;1.60;;
21488;SDS011;10906;45.194;5.684;2022-09-28T18:46:16;3.58;;;1.98;;
21488;SDS011;10906;45.194;5.684;2022-09-28T18:49:01;2.90;;;1.63;;
21488;SDS011;10906;45.194;5.684;2022-09-28T18:51:47;7.43;;;2.63;;
21488;SDS011;10906;45.194;5.684;2022-09-28T18:54:32;5.60;;;1.92;;
21488;SDS011;10906;45.194;5.684;2022-09-28T18:57:17;3.65;;;1.67;;
21488;SDS011;10906;45.194;5.684;2022-09-28T19:00:05;7.93;;;2.50;;
21488;SDS011;10906;45.194;5.684;2022-09-28T19:02:52;8.38;;;2.00;;
21488;SDS011;10906;45.194;5.684;2022-09-28T19:05:41;4.10;;;2.28;;
21488;SDS011;10906;45.194;5.684;2022-09-28T19:08:26;4.13;;;2.03;;
21488;SDS011;10906;45.194;5.684;2022-09-28T19:11:12;5.40;;;2.25;;
21488;SDS011;10906;45.194;5.684;2022-09-28T19:13:58;5.05;;;2.42;;
21488;SDS011;10906;45.194;5.684;2022-09-28T19:16:43;3.00;;;2.13;;
21488;SDS011;10906;45.194;5.684;2022-09-28T19:19:28;5.60;;;2.60;;
21488;SDS011;10906;45.194;5.684;2022-09-28T19:22:12;8.93;;;2.92;;
21488;SDS011;10906;45.194;5.684;2022-09-28T19:24:57;4.10;;;2.97;;
21488;SDS011;10906;45.194;5.684;2022-09-28T19:30:26;4.50;;;3.03;;
21488;SDS011;10906;45.194;5.684;2022-09-28T19:33:11;3.35;;;1.90;;
21488;SDS011;10906;45.194;5.684;2022-09-28T19:35:57;3.05;;;1.70;;
21488;SDS011;10906;45.194;5.684;2022-09-28T19:38:50;3.05;;;2.03;;
21488;SDS011;10906;45.194;5.684;2022-09-28T19:41:36;5.57;;;2.10;;
21488;SDS011;10906;45.194;5.684;2022-09-28T19:44:53;5.47;;;2.00;;
21488;SDS011;10906;45.194;5.684;2022-09-28T19:48:07;7.43;;;2.30;;
21488;SDS011;10906;45.194;5.684;2022-09-28T19:51:01;2.83;;;2.15;;
21488;SDS011;10906;45.194;5.684;2022-09-28T19:53:47;5.38;;;2.05;;
21488;SDS011;10906;45.194;5.684;2022-09-28T19:56:32;4.07;;;1.42;;
21488;SDS011;10906;45.194;5.684;2022-09-28T19:59:17;4.13;;;1.50;;
21488;SDS011;10906;45.194;5.684;2022-09-28T20:02:03;3.08;;;1.90;;
21488;SDS011;10906;45.194;5.684;2022-09-28T20:04:49;5.32;;;1.90;;
21488;SDS011;10906;45.194;5.684;2022-09-28T20:07:34;7.40;;;1.85;;
21488;SDS011;10906;45.194;5.684;2022-09-28T20:10:19;4.35;;;1.60;;
21488;SDS011;10906;45.194;5.684;2022-09-28T20:13:03;2.60;;;1.02;;
21488;SDS011;10906;45.194;5.684;2022-09-28T20:15:48;3.13;;;1.42;;
21488;SDS011;10906;45.194;5.684;2022-09-28T20:18:36;1.65;;;1.45;;
21488;SDS011;10906;45.194;5.684;2022-09-28T20:21:21;2.03;;;1.38;;
21488;SDS011;10906;45.194;5.684;2022-09-28T20:24:09;6.90;;;1.30;;
21488;SDS011;10906;45.194;5.684;2022-09-28T20:26:54;4.10;;;1.75;;
21488;SDS011;10906;45.194;5.684;2022-09-28T20:29:38;11.55;;;2.30;;
21488;SDS011;10906;45.194;5.684;2022-09-28T20:32:23;4.38;;;1.80;;
21488;SDS011;10906;45.194;5.684;2022-09-28T20:35:07;4.28;;;1.60;;
21488;SDS011;10906;45.194;5.684;2022-09-28T20:37:51;3.63;;;1.58;;
21488;SDS011;10906;45.194;5.684;2022-09-28T20:40:37;2.15;;;1.30;;
21488;SDS011;10906;45.194;5.684;2022-09-28T20:43:24;3.92;;;1.90;;
21488;SDS011;10906;45.194;5.684;2022-09-28T20:46:09;3.72;;;1.60;;
21488;SDS011;10906;45.194;5.684;2022-09-28T20:48:55;7.70;;;1.50;;
21488;SDS011;10906;45.194;5.684;2022-09-28T20:51:41;7.50;;;1.85;;
21488;SDS011;10906;45.194;5.684;2022-09-28T20:54:25;3.55;;;1.60;;
21488;SDS011;10906;45.194;5.684;2022-09-28T20:57:10;8.10;;;2.08;;
21488;SDS011;10906;45.194;5.684;2022-09-28T21:00:00;4.75;;;2.20;;
21488;SDS011;10906;45.194;5.684;2022-09-28T21:02:49;4.88;;;1.95;;
21488;SDS011;10906;45.194;5.684;2022-09-28T21:05:34;4.40;;;1.95;;
21488;SDS011;10906;45.194;5.684;2022-09-28T21:08:37;6.25;;;1.85;;
21488;SDS011;10906;45.194;5.684;2022-09-28T21:11:22;4.97;;;1.67;;
21488;SDS011;10906;45.194;5.684;2022-09-28T21:14:08;6.10;;;2.42;;
21488;SDS011;10906;45.194;5.684;2022-09-28T21:16:53;5.18;;;2.60;;
21488;SDS011;10906;45.194;5.684;2022-09-28T21:19:37;4.30;;;2.60;;
21488;SDS011;10906;45.194;5.684;2022-09-28T21:22:24;6.82;;;3.03;;
21488;SDS011;10906;45.194;5.684;2022-09-28T21:25:12;4.97;;;2.70;;
21488;SDS011;10906;45.194;5.684;2022-09-28T21:27:59;8.95;;;3.28;;
21488;SDS011;10906;45.194;5.684;2022-09-28T21:30:43;6.13;;;3.78;;
21488;SDS011;10906;45.194;5.684;2022-09-28T21:33:28;10.00;;;4.97;;
21488;SDS011;10906;45.194;5.684;2022-09-28T21:36:13;10.18;;;5.28;;
21488;SDS011;10906;45.194;5.684;2022-09-28T21:39:00;7.70;;;4.50;;
21488;SDS011;10906;45.194;5.684;2022-09-28T21:41:44;7.70;;;3.08;;
21488;SDS011;10906;45.194;5.684;2022-09-28T21:44:36;14.35;;;4.28;;
21488;SDS011;10906;45.194;5.684;2022-09-28T21:47:21;5.97;;;3.97;;
21488;SDS011;10906;45.194;5.684;2022-09-28T21:50:05;7.10;;;4.20;;
21488;SDS011;10906;45.194;5.684;2022-09-28T21:52:51;5.75;;;4.07;;
21488;SDS011;10906;45.194;5.684;2022-09-28T21:55:37;4.32;;;2.85;;
21488;SDS011;10906;45.194;5.684;2022-09-28T21:58:22;3.10;;;2.30;;
